createdAt,value
2023-02-11T00:02:53.267Z,93.38
2023-02-11T00:07:54.879Z,92.91
2023-02-11T00:12:56.666Z,93.91
2023-02-11T00:17:58.228Z,94.51
2023-02-11T00:22:59.821Z,93.79
2023-02-11T00:28:01.406Z,94.16
2023-02-11T00:33:03.628Z,93.70
2023-02-11T00:38:07.219Z,94.10
2023-02-11T00:43:08.851Z,94.43
2023-02-11T00:48:10.443Z,95.01
2023-02-11T00:53:12.236Z,94.75
2023-02-11T00:58:13.953Z,94.87
2023-02-11T01:03:17.186Z,95.22
2023-02-11T01:08:19.029Z,94.18
2023-02-11T01:13:20.598Z,94.44
2023-02-11T01:18:22.182Z,95.11
2023-02-11T01:23:24.123Z,95.61
2023-02-11T01:28:28.529Z,95.93
2023-02-11T01:33:30.580Z,95.71
2023-02-11T01:38:33.791Z,96.01
2023-02-11T01:43:41.682Z,95.96
2023-02-11T01:48:47.504Z,95.28
2023-02-11T01:54:09.727Z,95.33
2023-02-11T01:59:17.973Z,94.38
2023-02-11T02:04:20.128Z,94.43
2023-02-11T02:09:29.411Z,94.47
2023-02-11T02:14:30.998Z,94.21
2023-02-11T02:20:02.415Z,93.98
2023-02-11T02:25:28.174Z,94.70
2023-02-11T02:31:07.455Z,94.10
2023-02-11T02:36:21.305Z,93.69
2023-02-11T02:41:32.536Z,94.35
2023-02-11T02:46:35.614Z,94.15
2023-02-11T02:52:00.659Z,94.78
2023-02-11T02:57:13.959Z,95.11
2023-02-11T03:02:26.828Z,94.79
2023-02-11T03:07:41.774Z,95.03
2023-02-11T03:12:48.294Z,94.95
2023-02-11T03:17:54.297Z,95.74
2023-02-11T03:23:02.121Z,95.34
2023-02-11T03:28:23.384Z,94.71
2023-02-11T03:33:31.324Z,95.54
2023-02-11T03:38:37.776Z,94.42
2023-02-11T03:43:44.464Z,94.28
2023-02-11T03:48:51.916Z,94.45
2023-02-11T03:53:57.776Z,95.18
2023-02-11T03:58:59.349Z,95.32
2023-02-11T04:04:00.927Z,94.66
2023-02-11T04:09:02.672Z,94.45
2023-02-11T04:14:04.602Z,94.18
2023-02-11T04:19:06.198Z,94.11
2023-02-11T04:24:07.869Z,95.81
2023-02-11T04:29:10.583Z,94.50
2023-02-11T04:34:12.340Z,95.58
2023-02-11T04:39:13.929Z,95.76
2023-02-11T04:44:15.590Z,95.02
2023-02-11T04:49:17.540Z,95.42
2023-02-11T04:54:20.014Z,95.22
2023-02-11T04:59:21.658Z,94.13
2023-02-11T05:04:23.305Z,95.45
2023-02-11T05:09:24.909Z,94.95
2023-02-11T05:14:26.521Z,94.81
2023-02-11T05:19:28.110Z,94.49
2023-02-11T05:24:31.506Z,95.53
2023-02-11T05:29:34.766Z,94.72
2023-02-11T05:34:36.866Z,95.36
2023-02-11T05:39:38.446Z,94.88
2023-02-11T05:44:40.156Z,94.38
2023-02-11T05:49:41.760Z,94.52
2023-02-11T05:54:43.334Z,95.19
2023-02-11T05:59:44.938Z,94.36
2023-02-11T06:04:46.617Z,93.63
2023-02-11T06:09:48.192Z,93.24
2023-02-11T06:14:49.828Z,94.81
2023-02-11T06:19:51.623Z,94.15
2023-02-11T06:25:01.344Z,94.78
2023-02-11T06:30:04.989Z,94.54
2023-02-11T06:35:11.930Z,94.87
2023-02-11T06:40:14.013Z,94.85
2023-02-11T06:45:15.701Z,95.45
2023-02-11T06:50:17.432Z,96.23
2023-02-11T06:55:19.033Z,96.25
2023-02-11T07:00:20.682Z,96.47
2023-02-11T07:05:22.248Z,96.73
2023-02-11T07:10:23.989Z,96.46
2023-02-11T07:15:25.808Z,95.46
2023-02-11T07:20:27.409Z,96.08
2023-02-11T07:25:29.007Z,95.04
2023-02-11T07:30:30.711Z,94.91
2023-02-11T07:35:32.337Z,94.60
2023-02-11T07:40:34.006Z,94.56
2023-02-11T07:45:38.931Z,94.10
2023-02-11T07:50:40.490Z,94.07
2023-02-11T07:55:43.686Z,93.53
2023-02-11T08:00:46.095Z,93.54
2023-02-11T08:05:47.733Z,93.34
2023-02-11T08:10:49.500Z,93.09
2023-02-11T08:15:51.651Z,93.39
2023-02-11T08:20:53.520Z,93.20
2023-02-11T08:25:55.083Z,92.67
2023-02-11T08:30:56.706Z,92.35
2023-02-11T08:35:58.370Z,92.68
2023-02-11T08:41:01.034Z,93.00
2023-02-11T08:46:03.426Z,94.08
2023-02-11T08:51:09.611Z,94.14
2023-02-11T08:56:13.657Z,94.00
2023-02-11T09:01:26.909Z,94.05
2023-02-11T09:06:29.492Z,94.16
2023-02-11T09:11:33.746Z,93.57
2023-02-11T09:16:36.569Z,93.46
2023-02-11T09:21:38.218Z,93.27
2023-02-11T09:26:42.152Z,93.34
2023-02-11T09:31:43.909Z,92.76
2023-02-11T09:36:45.884Z,91.98
2023-02-11T09:42:15.407Z,91.51
2023-02-11T09:47:27.425Z,90.44
2023-02-11T09:52:58.131Z,89.55
2023-02-11T09:58:03.409Z,87.90
2023-02-11T10:03:26.345Z,88.03
2023-02-11T10:08:46.764Z,86.09
2023-02-11T10:14:01.346Z,82.99
2023-02-11T10:19:34.240Z,80.41
2023-02-11T10:24:37.440Z,78.61
2023-02-11T10:29:44.258Z,77.49
2023-02-11T10:34:45.975Z,76.23
2023-02-11T10:39:47.581Z,76.32
2023-02-11T10:45:02.526Z,76.86
2023-02-11T10:50:29.655Z,76.57
2023-02-11T10:55:31.287Z,75.73
2023-02-11T11:00:41.029Z,75.84
2023-02-11T11:06:01.032Z,75.49
2023-02-11T11:11:12.371Z,75.04
2023-02-11T11:16:13.924Z,75.90
2023-02-11T11:21:42.891Z,75.29
2023-02-11T11:26:44.436Z,74.76
2023-02-11T11:31:59.503Z,73.83
2023-02-11T11:37:11.731Z,73.77
2023-02-11T11:42:31.529Z,74.39
2023-02-11T11:47:48.805Z,71.86
2023-02-11T11:52:54.184Z,73.05
2023-02-11T11:57:55.760Z,72.39
2023-02-11T12:03:39.180Z,72.06
2023-02-11T12:09:07.930Z,72.25
2023-02-11T12:14:47.072Z,73.04
2023-02-11T12:20:27.474Z,73.08
2023-02-11T12:25:54.290Z,72.56
2023-02-11T12:31:13.187Z,72.48
2023-02-11T12:36:46.573Z,72.15
2023-02-11T12:42:18.108Z,71.83
2023-02-11T12:47:35.526Z,73.17
2023-02-11T12:53:04.767Z,71.77
2023-02-11T12:58:16.273Z,72.04
2023-02-11T13:03:31.999Z,72.97
2023-02-11T13:08:53.783Z,71.70
2023-02-11T13:14:12.757Z,71.93
2023-02-11T13:19:22.359Z,71.40
2023-02-11T13:24:39.691Z,72.10
2023-02-11T13:29:59.427Z,72.41
2023-02-11T13:35:01.887Z,71.82
2023-02-11T13:40:19.849Z,71.81
2023-02-11T13:45:33.605Z,71.07
2023-02-11T13:50:39.803Z,71.93
2023-02-11T13:55:45.992Z,71.40
2023-02-11T14:00:51.747Z,71.10
2023-02-11T14:06:46.115Z,71.93
2023-02-11T14:11:57.233Z,71.50
2023-02-11T14:16:58.959Z,71.65
2023-02-11T14:22:16.633Z,71.12
2023-02-11T14:27:25.864Z,70.95
2023-02-11T14:32:53.634Z,71.73
2023-02-11T14:38:07.512Z,72.14
2023-02-11T14:43:23.275Z,71.61
2023-02-11T14:48:31.781Z,70.99
2023-02-11T14:53:34.852Z,71.94
2023-02-11T14:58:36.445Z,71.43
2023-02-11T15:03:43.407Z,71.28
2023-02-11T15:08:55.059Z,70.75
2023-02-11T15:13:59.311Z,70.68
2023-02-11T15:19:06.410Z,69.62
2023-02-11T15:24:29.951Z,69.81
2023-02-11T15:29:40.977Z,69.53
2023-02-11T15:34:44.247Z,70.04
2023-02-11T15:39:45.888Z,69.86
2023-02-11T15:44:54.391Z,69.92
2023-02-11T15:49:58.184Z,69.95
2023-02-11T15:55:02.833Z,70.35
2023-02-11T16:00:07.213Z,70.07
2023-02-11T16:05:32.735Z,70.46
2023-02-11T16:10:36.120Z,70.72
2023-02-11T16:15:45.364Z,70.43
2023-02-11T16:20:48.796Z,70.71
2023-02-11T16:26:16.687Z,70.30
2023-02-11T16:31:18.848Z,70.10
2023-02-11T16:36:20.543Z,70.41
2023-02-11T16:41:22.169Z,71.06
2023-02-11T16:46:23.864Z,70.62
2023-02-11T16:51:25.737Z,70.83
2023-02-11T16:56:27.343Z,71.44
2023-02-11T17:01:29.189Z,72.19
2023-02-11T17:06:31.057Z,71.74
2023-02-11T17:11:32.602Z,72.18
2023-02-11T17:16:34.269Z,72.73
2023-02-11T17:21:35.904Z,73.00
2023-02-11T17:26:38.474Z,72.68
2023-02-11T17:31:40.777Z,73.95
2023-02-11T17:36:42.416Z,74.24
2023-02-11T17:41:43.968Z,74.50
2023-02-11T17:46:45.566Z,74.96
2023-02-11T17:51:47.161Z,74.71
2023-02-11T17:56:50.793Z,75.02
2023-02-11T18:01:52.559Z,75.52
2023-02-11T18:06:54.153Z,74.96
2023-02-11T18:11:55.783Z,75.49
2023-02-11T18:16:57.441Z,75.81
2023-02-11T18:22:00.978Z,75.90
2023-02-11T18:27:02.865Z,76.16
2023-02-11T18:32:04.624Z,76.43
2023-02-11T18:37:06.621Z,76.75
2023-02-11T18:42:09.183Z,77.23
2023-02-11T18:47:10.740Z,77.75
2023-02-11T18:52:12.313Z,77.52
2023-02-11T18:57:13.866Z,78.54
2023-02-11T19:02:15.449Z,79.12
2023-02-11T19:07:17.332Z,79.28
2023-02-11T19:12:18.892Z,79.18
2023-02-11T19:17:20.454Z,79.26
2023-02-11T19:22:22.047Z,79.40
2023-02-11T19:27:23.663Z,79.22
2023-02-11T19:32:25.264Z,79.73
2023-02-11T19:37:26.950Z,79.47
2023-02-11T19:42:28.593Z,80.37
2023-02-11T19:47:31.294Z,79.60
2023-02-11T19:52:32.971Z,80.25
2023-02-11T19:57:34.531Z,79.75
2023-02-11T20:02:37.965Z,79.93
2023-02-11T20:07:39.555Z,80.78
2023-02-11T20:12:41.117Z,81.90
2023-02-11T20:17:42.768Z,81.92
2023-02-11T20:22:44.649Z,82.00
2023-02-11T20:27:46.209Z,83.04
2023-02-11T20:32:47.778Z,83.70
2023-02-11T20:37:49.443Z,82.86
2023-02-11T20:42:51.460Z,82.88
2023-02-11T20:47:54.545Z,82.83
2023-02-11T20:52:56.107Z,83.24
2023-02-11T20:57:57.736Z,84.31
2023-02-11T21:02:59.366Z,83.91
2023-02-11T21:08:01.008Z,83.88
2023-02-11T21:13:03.016Z,84.00
2023-02-11T21:18:04.759Z,84.90
2023-02-11T21:23:06.318Z,84.94
2023-02-11T21:28:08.034Z,85.47
2023-02-11T21:33:09.768Z,84.92
2023-02-11T21:38:11.608Z,84.96
2023-02-11T21:43:13.242Z,84.35
2023-02-11T21:48:16.171Z,84.69
2023-02-11T21:53:17.766Z,84.85
2023-02-11T21:58:19.395Z,84.89
2023-02-11T22:03:21.036Z,85.00
2023-02-11T22:08:22.668Z,85.07
2023-02-11T22:13:24.309Z,85.39
2023-02-11T22:18:26.377Z,86.22
2023-02-11T22:23:28.802Z,86.00
2023-02-11T22:28:30.494Z,85.93
2023-02-11T22:33:32.155Z,86.10
2023-02-11T22:38:34.400Z,86.67
2023-02-11T22:43:37.183Z,86.74
2023-02-11T22:48:38.810Z,86.70
2023-02-11T22:53:40.482Z,87.02
2023-02-11T22:58:42.119Z,86.47
2023-02-11T23:03:44.630Z,86.95
2023-02-11T23:08:49.372Z,85.78
2023-02-11T23:13:52.876Z,86.14
2023-02-11T23:18:55.200Z,86.48
2023-02-11T23:24:15.834Z,86.35
2023-02-11T23:29:17.515Z,86.58
2023-02-11T23:34:23.953Z,87.00
2023-02-11T23:39:25.613Z,85.91
2023-02-11T23:44:27.929Z,86.67
2023-02-11T23:49:29.678Z,87.12
2023-02-11T23:54:31.252Z,86.62
2023-02-11T23:59:35.320Z,86.82
